Defiance, Ohio
Current Conditions -  °F | °C
As of 10:53 AM on Friday 28 Nov 2014 (Local Time) from KDFI Reporting Station
Overcast Overcast  
Wind Chill: 18°   Ceiling: 7500
Heat Index: 26°   Visibility: 10mi
Dew Point: 15°   Wind: 8mph
Humidity: 63%   Direction: 200°SSW
Pressure: 30.33"   Gusts: NA
Location:  41.29°N, 84.36°W
Report Text: KDFI 281553Z AUTO 20007KT 10SM OVC075 M03/M09 A3033 RMK AO2 SLP281 T10331094
Loading
Personal Weather Stations






























Interactive Weather Map New forecast layout! Learn more

10-Day Weather Forecast

Advertisements
Track Severe Weather on mobile